createdAt,value
2022-12-03T00:00:16.503Z,-0.79
2022-12-03T00:03:36.788Z,-0.80
2022-12-03T00:06:54.255Z,-0.80
2022-12-03T00:10:12.518Z,-0.80
2022-12-03T00:13:28.858Z,-0.78
2022-12-03T00:16:46.245Z,-0.78
2022-12-03T00:20:02.695Z,-0.77
2022-12-03T00:23:19.096Z,-0.79
2022-12-03T00:26:36.193Z,-0.80
2022-12-03T00:29:52.449Z,-0.78
2022-12-03T00:33:08.871Z,-0.75
2022-12-03T00:36:25.794Z,-0.72
2022-12-03T00:39:42.825Z,-1.01
2022-12-03T00:42:59.196Z,-0.93
2022-12-03T00:46:21.106Z,-0.89
2022-12-03T00:49:35.713Z,-0.85
2022-12-03T00:52:52.272Z,-0.82
2022-12-03T01:00:59.801Z,-0.74
2022-12-03T01:04:16.475Z,-0.72
2022-12-03T01:07:32.840Z,-0.68
2022-12-03T01:10:49.435Z,-0.71
2022-12-03T01:14:06.047Z,-0.69
2022-12-03T01:17:22.667Z,-0.73
2022-12-03T01:20:39.489Z,-0.72
2022-12-03T01:23:56.628Z,-0.69
2022-12-03T01:27:13.376Z,-0.70
2022-12-03T01:30:29.790Z,-0.69
2022-12-03T01:33:46.325Z,-0.66
2022-12-03T01:37:02.792Z,-0.68
2022-12-03T01:40:25.112Z,-0.68
2022-12-03T01:43:41.406Z,-0.67
2022-12-03T01:47:00.242Z,-0.69
2022-12-03T01:50:23.076Z,-0.73
2022-12-03T01:53:39.792Z,-0.71
2022-12-03T01:56:57.818Z,-0.72
2022-12-03T02:00:20.177Z,-0.71
2022-12-03T02:03:36.778Z,-0.71
2022-12-03T02:06:54.299Z,-0.70
2022-12-03T02:10:13.269Z,-0.73
2022-12-03T02:13:30.283Z,-0.71
2022-12-03T02:16:49.067Z,-0.67
2022-12-03T02:20:06.908Z,-0.69
2022-12-03T02:23:28.898Z,-0.92
2022-12-03T02:30:00.990Z,-0.81
2022-12-03T02:33:18.204Z,-0.75
2022-12-03T02:36:34.855Z,-0.68
2022-12-03T02:39:55.778Z,-0.68
2022-12-03T02:46:27.839Z,-0.68
2022-12-03T02:49:44.560Z,-0.64
2022-12-03T02:53:04.571Z,-0.62
2022-12-03T02:56:24.441Z,-0.59
2022-12-03T03:02:57.045Z,-0.59
2022-12-03T03:06:16.366Z,-0.58
2022-12-03T03:09:32.977Z,-0.60
2022-12-03T03:12:49.425Z,-0.62
2022-12-03T03:16:06.817Z,-0.60
2022-12-03T03:19:23.425Z,-0.71
2022-12-03T03:22:47.690Z,-0.68
2022-12-03T03:26:09.574Z,-0.65
2022-12-03T03:29:26.468Z,-0.61
2022-12-03T03:32:43.984Z,-0.55
2022-12-03T03:36:02.735Z,-0.55
2022-12-03T03:39:20.971Z,-0.54
2022-12-03T03:45:53.881Z,-0.54
2022-12-03T03:49:12.670Z,-0.53
2022-12-03T03:52:31.060Z,-0.57
2022-12-03T03:55:48.640Z,-0.60
2022-12-03T04:02:28.361Z,-0.59
2022-12-03T04:05:44.805Z,-0.59
2022-12-03T04:09:01.006Z,-0.61
2022-12-03T04:12:33.302Z,-0.58
2022-12-03T04:15:49.636Z,-0.58
2022-12-03T04:19:05.957Z,-0.58
2022-12-03T04:22:50.659Z,-0.55
2022-12-03T04:26:20.683Z,-0.57
2022-12-03T04:29:36.779Z,-0.55
2022-12-03T04:33:07.318Z,-0.55
2022-12-03T04:36:24.132Z,-0.56
2022-12-03T04:39:42.137Z,-0.54
2022-12-03T04:42:58.320Z,-0.54
2022-12-03T04:46:14.791Z,-0.59
2022-12-03T04:49:31.409Z,-0.54
2022-12-03T04:52:47.522Z,-0.49
2022-12-03T04:56:03.706Z,-0.53
2022-12-03T04:59:20.364Z,-0.69
2022-12-03T05:02:36.669Z,-0.63
2022-12-03T05:05:53.313Z,-0.57
2022-12-03T05:09:09.937Z,-0.54
2022-12-03T05:15:44.703Z,-0.51
2022-12-03T05:19:00.835Z,-0.47
2022-12-03T05:22:16.909Z,-0.48
2022-12-03T05:25:33.176Z,-0.66
2022-12-03T05:32:04.823Z,-0.82
2022-12-03T05:35:21.438Z,-0.69
2022-12-03T05:38:37.632Z,-0.67
2022-12-03T05:42:07.989Z,-0.61
2022-12-03T05:46:23.855Z,-0.59
2022-12-03T05:49:40.322Z,-0.59
2022-12-03T05:52:57.373Z,-0.57
2022-12-03T05:56:14.613Z,-0.65
2022-12-03T06:02:46.981Z,-0.61
2022-12-03T06:06:03.499Z,-0.60
2022-12-03T06:09:19.674Z,-0.63
2022-12-03T06:12:36.075Z,-0.67
2022-12-03T06:15:52.302Z,-0.76
2022-12-03T06:19:08.664Z,-0.84
2022-12-03T06:22:24.901Z,-0.75
2022-12-03T06:25:41.120Z,-0.64
2022-12-03T06:28:58.293Z,-0.62
2022-12-03T06:32:15.320Z,-0.61
2022-12-03T06:35:31.596Z,-0.63
2022-12-03T06:38:48.185Z,-0.61
2022-12-03T06:42:05.523Z,-0.61
2022-12-03T06:45:22.237Z,-0.58
2022-12-03T06:48:38.579Z,-0.57
2022-12-03T06:51:54.836Z,-0.59
2022-12-03T06:55:12.523Z,-0.70
2022-12-03T06:58:28.649Z,-0.62
2022-12-03T07:01:45.403Z,-0.59
2022-12-03T07:05:01.525Z,-0.54
2022-12-03T07:08:20.242Z,-0.53
2022-12-03T07:11:38.421Z,-0.61
2022-12-03T07:18:11.449Z,-0.88
2022-12-03T07:21:28.394Z,-0.77
2022-12-03T07:24:51.501Z,-0.72
2022-12-03T07:28:09.295Z,-0.69
2022-12-03T07:31:27.783Z,-0.71
2022-12-03T07:34:45.261Z,-0.64
2022-12-03T07:38:01.971Z,-0.62
2022-12-03T07:41:21.988Z,-0.73
2022-12-03T07:44:40.761Z,-0.66
2022-12-03T07:47:57.423Z,-0.77
2022-12-03T07:51:15.424Z,-0.68
2022-12-03T07:54:35.819Z,-0.63
2022-12-03T08:02:20.962Z,-0.77
2022-12-03T08:05:35.401Z,-0.81
2022-12-03T08:08:52.864Z,-0.77
2022-12-03T08:12:15.785Z,-0.68
2022-12-03T08:15:39.329Z,-0.64
2022-12-03T08:18:55.834Z,-0.55
2022-12-03T08:22:18.171Z,-0.46
2022-12-03T08:25:38.005Z,-0.41
2022-12-03T08:32:13.031Z,-0.40
2022-12-03T08:35:34.014Z,-0.44
2022-12-03T08:38:53.932Z,-0.42
2022-12-03T08:42:36.607Z,-0.42
2022-12-03T08:49:13.373Z,-0.48
2022-12-03T08:52:35.947Z,-0.42
2022-12-03T08:55:58.397Z,-0.38
2022-12-03T08:59:30.822Z,-0.42
2022-12-03T09:02:53.947Z,-0.59
2022-12-03T09:06:12.660Z,-0.61
2022-12-03T09:09:35.967Z,-0.49
2022-12-03T09:12:52.501Z,-0.43
2022-12-03T09:16:11.530Z,-0.39
2022-12-03T09:19:31.199Z,-0.36
2022-12-03T09:22:51.008Z,-0.36
2022-12-03T09:26:09.327Z,-0.28
2022-12-03T09:29:34.653Z,-0.26
2022-12-03T09:32:52.259Z,-0.21
2022-12-03T09:36:11.941Z,-0.17
2022-12-03T09:39:33.053Z,-0.14
2022-12-03T09:42:50.504Z,-0.12
2022-12-03T09:46:10.603Z,-0.09
2022-12-03T09:49:28.507Z,-0.07
2022-12-03T09:52:46.320Z,-0.03
2022-12-03T09:56:06.063Z,-0.05
2022-12-03T09:59:25.073Z,-0.02
2022-12-03T10:02:41.941Z,-0.03
2022-12-03T10:05:59.447Z,-0.01
2022-12-03T10:09:18.216Z,0.03
2022-12-03T10:12:36.965Z,0.02
2022-12-03T10:15:57.235Z,-0.01
2022-12-03T10:19:20.645Z,-0.06
2022-12-03T10:22:39.399Z,-0.11
2022-12-03T10:26:04.493Z,-0.06
2022-12-03T10:29:32.871Z,-0.04
2022-12-03T10:32:57.539Z,-0.02
2022-12-03T10:36:34.461Z,-0.04
2022-12-03T10:40:10.696Z,-0.02
2022-12-03T10:49:26.966Z,-0.10
2022-12-03T10:52:43.921Z,-0.05
2022-12-03T10:56:05.186Z,-0.03
2022-12-03T10:59:28.672Z,-0.07
2022-12-03T11:02:50.402Z,-0.04
2022-12-03T11:06:09.604Z,-0.03
2022-12-03T11:09:32.364Z,-0.02
2022-12-03T11:12:50.550Z,-0.02
2022-12-03T11:16:10.574Z,-0.01
2022-12-03T11:19:39.154Z,0.02
2022-12-03T11:22:59.410Z,0.05
2022-12-03T11:26:19.326Z,0.06
2022-12-03T11:30:09.473Z,0.09
2022-12-03T11:33:37.652Z,0.14
2022-12-03T11:37:33.588Z,0.14
2022-12-03T11:41:06.860Z,0.13
2022-12-03T11:44:38.647Z,0.10
2022-12-03T11:48:09.796Z,0.09
2022-12-03T11:51:30.691Z,0.07
2022-12-03T11:54:53.649Z,0.08
2022-12-03T11:58:20.792Z,0.09
2022-12-03T12:01:47.115Z,0.12
2022-12-03T12:05:20.912Z,0.11
2022-12-03T12:08:40.391Z,0.12
2022-12-03T12:11:59.700Z,0.15
2022-12-03T12:18:55.049Z,0.11
2022-12-03T12:22:42.403Z,0.08
2022-12-03T12:26:00.986Z,0.12
2022-12-03T12:32:37.189Z,0.10
2022-12-03T12:35:55.244Z,0.07
2022-12-03T12:39:16.687Z,0.13
2022-12-03T12:42:47.562Z,0.15
2022-12-03T12:52:23.525Z,0.25
2022-12-03T12:55:41.873Z,0.27
2022-12-03T12:59:01.868Z,0.26
2022-12-03T13:02:43.614Z,0.30
2022-12-03T13:06:04.521Z,0.23
2022-12-03T13:09:31.222Z,0.22
2022-12-03T13:12:50.663Z,0.23
2022-12-03T13:16:17.197Z,0.15
2022-12-03T13:20:00.479Z,0.18
2022-12-03T13:23:31.338Z,0.20
2022-12-03T13:26:52.010Z,0.23
2022-12-03T13:30:17.719Z,0.22
2022-12-03T13:34:01.821Z,0.19
2022-12-03T13:37:28.217Z,0.14
2022-12-03T13:40:51.574Z,0.10
2022-12-03T13:44:24.382Z,0.08
2022-12-03T13:47:45.392Z,0.08
2022-12-03T13:51:05.479Z,0.11
2022-12-03T13:54:28.805Z,0.09
2022-12-03T13:57:46.672Z,0.05
2022-12-03T14:01:04.488Z,0.03
2022-12-03T14:04:22.564Z,0.04
2022-12-03T14:07:39.805Z,0.04
2022-12-03T14:11:00.385Z,0.07
2022-12-03T14:14:15.519Z,0.10
2022-12-03T14:17:34.948Z,0.09
2022-12-03T14:20:52.176Z,0.09
2022-12-03T14:24:08.732Z,0.06
2022-12-03T14:27:25.716Z,0.07
2022-12-03T14:30:42.248Z,0.05
2022-12-03T14:33:59.722Z,0.05
2022-12-03T14:37:16.413Z,0.04
2022-12-03T14:40:33.697Z,-0.02
2022-12-03T14:43:50.077Z,0.04
2022-12-03T14:47:08.618Z,0.07
2022-12-03T14:50:26.414Z,0.08
2022-12-03T14:53:44.068Z,0.08
2022-12-03T14:57:00.874Z,0.08
2022-12-03T15:00:21.874Z,0.10
2022-12-03T15:03:40.740Z,0.12
2022-12-03T15:07:00.375Z,0.12
2022-12-03T15:10:20.756Z,0.15
2022-12-03T15:13:39.991Z,0.12
2022-12-03T15:17:02.120Z,0.09
2022-12-03T15:21:15.522Z,0.13
2022-12-03T15:24:44.417Z,0.10
2022-12-03T15:28:03.879Z,0.10
2022-12-03T15:31:25.970Z,0.12
2022-12-03T15:34:48.734Z,0.08
2022-12-03T15:38:08.570Z,0.10
2022-12-03T15:41:39.428Z,0.14
2022-12-03T15:44:57.801Z,0.18
2022-12-03T15:52:20.725Z,0.16
2022-12-03T15:55:37.612Z,0.17
2022-12-03T15:59:03.142Z,0.18
2022-12-03T16:02:30.624Z,0.11
2022-12-03T16:06:42.215Z,-0.03
2022-12-03T16:09:28.852Z,0.09
2022-12-03T16:12:48.514Z,0.09
2022-12-03T16:16:08.240Z,0.14
2022-12-03T16:19:26.154Z,0.04
2022-12-03T16:22:42.822Z,0.15
2022-12-03T16:26:03.939Z,0.16
2022-12-03T16:30:16.578Z,0.16
2022-12-03T16:33:33.385Z,0.20
2022-12-03T16:36:51.361Z,0.08
2022-12-03T16:40:08.068Z,0.18
2022-12-03T16:43:24.762Z,0.24
2022-12-03T16:46:41.702Z,0.26
2022-12-03T16:49:58.470Z,0.28
2022-12-03T16:53:15.249Z,0.32
2022-12-03T16:56:33.198Z,0.36
2022-12-03T16:59:49.592Z,0.39
2022-12-03T17:03:06.350Z,0.33
2022-12-03T17:06:23.585Z,0.37
2022-12-03T17:09:40.090Z,0.40
2022-12-03T17:13:12.200Z,0.41
2022-12-03T17:16:16.451Z,0.43
2022-12-03T17:19:35.939Z,0.47
2022-12-03T17:22:52.696Z,0.48
2022-12-03T17:26:10.111Z,0.50
2022-12-03T17:29:27.083Z,0.49
2022-12-03T17:32:43.731Z,0.51
2022-12-03T17:36:00.475Z,0.51
2022-12-03T17:39:18.469Z,0.51
2022-12-03T17:42:35.592Z,0.51
2022-12-03T17:45:52.065Z,0.51
2022-12-03T17:49:08.527Z,0.47
2022-12-03T17:52:25.118Z,0.50
2022-12-03T17:55:44.966Z,0.52
2022-12-03T17:59:00.837Z,0.49
2022-12-03T18:02:18.159Z,0.51
2022-12-03T18:05:35.344Z,0.48
2022-12-03T18:09:20.670Z,0.53
2022-12-03T18:12:41.819Z,0.52
2022-12-03T18:15:58.614Z,0.53
2022-12-03T18:19:16.388Z,0.52
2022-12-03T18:22:33.295Z,0.47
2022-12-03T18:25:51.618Z,0.47
2022-12-03T18:29:08.900Z,0.45
2022-12-03T18:32:29.416Z,0.41
2022-12-03T18:35:44.455Z,0.41
2022-12-03T18:39:03.322Z,0.44
2022-12-03T18:42:32.167Z,0.42
2022-12-03T18:46:02.032Z,0.46
2022-12-03T18:49:19.054Z,0.46
2022-12-03T18:52:37.001Z,0.31
2022-12-03T18:55:57.338Z,0.38
2022-12-03T18:59:27.660Z,0.36
2022-12-03T19:06:18.786Z,0.37
2022-12-03T19:09:46.455Z,0.33
2022-12-03T19:13:20.243Z,0.31
2022-12-03T19:16:47.456Z,0.33
2022-12-03T19:20:36.279Z,0.34
2022-12-03T19:24:23.217Z,0.35
2022-12-03T19:27:32.744Z,0.35
2022-12-03T19:31:10.534Z,0.37
2022-12-03T19:34:30.683Z,0.38
2022-12-03T19:37:48.997Z,0.22
2022-12-03T19:41:14.985Z,0.19
2022-12-03T19:44:32.159Z,0.27
2022-12-03T19:47:50.922Z,0.28
2022-12-03T19:54:10.054Z,0.20
2022-12-03T19:57:39.466Z,0.20
2022-12-03T20:01:04.541Z,0.20
2022-12-03T20:04:30.659Z,0.16
2022-12-03T20:08:09.372Z,0.14
2022-12-03T20:11:51.702Z,0.12
2022-12-03T20:15:19.145Z,0.15
2022-12-03T20:18:37.133Z,0.14
2022-12-03T20:22:04.639Z,0.16
2022-12-03T20:25:26.637Z,0.22
2022-12-03T20:28:45.267Z,0.23
2022-12-03T20:32:10.549Z,0.23
2022-12-03T20:35:30.559Z,0.23
2022-12-03T20:38:52.125Z,0.21
2022-12-03T20:42:11.827Z,0.04
2022-12-03T20:45:29.151Z,0.13
2022-12-03T20:48:46.678Z,0.20
2022-12-03T20:52:04.737Z,0.21
2022-12-03T20:55:21.742Z,0.22
2022-12-03T20:58:41.242Z,0.25
2022-12-03T21:01:57.858Z,0.27
2022-12-03T21:05:15.216Z,0.26
2022-12-03T21:08:40.975Z,0.26
2022-12-03T21:11:51.196Z,0.30
2022-12-03T21:15:07.949Z,0.29
2022-12-03T21:18:26.123Z,0.23
2022-12-03T21:21:46.044Z,0.25
2022-12-03T21:25:05.548Z,0.22
2022-12-03T21:28:22.410Z,0.19
2022-12-03T21:31:40.711Z,0.19
2022-12-03T21:34:57.852Z,0.19
2022-12-03T21:38:20.293Z,0.17
2022-12-03T21:41:40.303Z,0.13
2022-12-03T21:44:59.158Z,0.13
2022-12-03T21:48:19.927Z,0.11
2022-12-03T21:51:38.824Z,0.15
2022-12-03T21:54:55.893Z,0.18
2022-12-03T21:58:12.254Z,0.18
2022-12-03T22:01:32.918Z,0.15
2022-12-03T22:04:49.766Z,0.16
2022-12-03T22:08:07.401Z,0.09
2022-12-03T22:11:28.102Z,0.07
2022-12-03T22:14:44.287Z,0.03
2022-12-03T22:18:01.415Z,-0.01
2022-12-03T22:21:22.681Z,-0.01
2022-12-03T22:24:42.421Z,-0.05
2022-12-03T22:28:00.005Z,-0.10
2022-12-03T22:31:18.710Z,-0.13
2022-12-03T22:34:36.155Z,-0.12
2022-12-03T22:37:53.142Z,-0.12
2022-12-03T22:41:12.471Z,-0.16
2022-12-03T22:44:29.752Z,-0.16
2022-12-03T22:47:52.574Z,-0.15
2022-12-03T22:51:09.762Z,-0.16
2022-12-03T22:54:26.353Z,-0.14
2022-12-03T22:57:43.785Z,-0.10
2022-12-03T23:01:03.148Z,-0.07
2022-12-03T23:04:21.308Z,-0.07
2022-12-03T23:07:37.961Z,-0.08
2022-12-03T23:10:57.481Z,-0.05
2022-12-03T23:14:11.988Z,-0.03
2022-12-03T23:17:28.458Z,0.00
2022-12-03T23:20:49.127Z,-0.03
2022-12-03T23:24:05.886Z,-0.01
2022-12-03T23:27:22.374Z,0.05
2022-12-03T23:30:40.110Z,0.04
2022-12-03T23:34:01.243Z,0.03
2022-12-03T23:37:17.681Z,0.01
2022-12-03T23:40:33.926Z,0.03
2022-12-03T23:43:51.113Z,0.04
2022-12-03T23:47:07.827Z,0.00
2022-12-03T23:50:24.509Z,0.05
2022-12-03T23:53:41.859Z,0.06
2022-12-03T23:56:58.222Z,-0.03
